Flight Track Log - Related Links

Times and Time Zones

All times are in EDT time to prevent confusion due to time zone crossing. See the N405DD flight status page for this flight to view local times or setup timezone preferences in your user account.

Time Position Orientation Groundspeed Altitude Reporting Facility
EDT Latitude Longitude Course Direction KTS MPH feet Rate Location/Type
Thu 09:04:37 AM 47.9570 -97.1810 359° North 121 139 500  Level FlightAware ADS-B
Thu 09:04:57 AM 47.9700 -97.1800 North 129 148 1,100 1,800 Climbing FlightAware ADS-B
Thu 09:05:07 AM 47.9750 -97.1770 22° Northeast 127 146 1,400 1,920 Climbing FlightAware ADS-B
Thu 09:05:22 AM 47.9820 -97.1660 46° Northeast 133 153 1,900 1,600 Climbing FlightAware ADS-B
Thu 09:05:37 AM 47.9840 -97.1540 76° East 140 161 2,200 1,200 Climbing FlightAware ADS-B
Thu 09:06:07 AM 47.9820 -97.1250 96° East 152 175 2,800 933 Climbing FlightAware ADS-B
Thu 09:06:22 AM 47.9720 -97.1140 144° Southeast 172 198 2,900 720 Climbing FlightAware ADS-B
Thu 09:06:32 AM 47.9660 -97.1080 146° Southeast 173 199 3,100 1,350 Climbing FlightAware ADS-B
Thu 09:07:02 AM 47.9460 -97.0860 144° Southeast 166 191 3,800 1,200 Climbing FlightAware ADS-B
Thu 09:07:32 AM 47.9280 -97.0650 142° Southeast 168 193 4,300 960 Climbing FlightAware ADS-B
Thu 09:07:52 AM 47.9150 -97.0510 144° Southeast 173 199 4,600 840 Climbing FlightAware ADS-B
Thu 09:08:22 AM 47.8960 -97.0290 142° Southeast 176 203 5,000 900 Climbing FlightAware ADS-B
Thu 09:08:52 AM 47.8760 -97.0070 144° Southeast 177 204 5,500 900 Climbing FlightAware ADS-B
Thu 09:09:22 AM 47.8570 -96.9860 143° Southeast 181 208 5,900 900 Climbing FlightAware ADS-B
Thu 09:09:32 AM 47.8500 -96.9780 143° Southeast 181 208 6,100 900 Climbing FlightAware ADS-B
Thu 09:10:02 AM 47.8300 -96.9550 142° Southeast 182 209 6,500 700 Climbing FlightAware ADS-B
Thu 09:10:32 AM 47.8100 -96.9330 144° Southeast 190 219 6,800 400 Climbing FlightAware ADS-B
Thu 09:11:02 AM 47.7870 -96.9090 145° Southeast 200 230 6,900 150 Climbing FlightAware ADS-B
Thu 09:11:12 AM 47.7790 -96.9040 157° South 201 231 6,900  Level FlightAware ADS-B
Thu 09:11:17 AM 47.7740 -96.9030 172° South 197 227 6,900  Level FlightAware ADS-B
Thu 09:11:42 AM 47.7530 -96.9030 180° South 197 227 6,900  Level FlightAware ADS-B
Thu 09:11:52 AM 47.7560 -96.9310 279° West 162 186 6,900 -150 Level FlightAware ADS-B
Thu 09:12:22 AM 47.7540 -96.9630 265° West 164 189 6,800 -300 Descending FlightAware ADS-B
Thu 09:12:32 AM 47.7490 -96.9700 223° Southwest 171 197 6,700 -400 Descending FlightAware ADS-B
Thu 09:12:52 AM 47.7440 -96.9510 111° Southeast 156 180 6,600  Descending FlightAware ADS-B
Thu 09:13:07 AM 47.7500 -96.9600 315° West 146 168 6,700 300 Climbing FlightAware ADS-B
Thu 09:13:32 AM 47.7500 -96.9830 270° West 145 167 6,800 327 Climbing FlightAware ADS-B
Thu 09:14:02 AM 47.7470 -97.0130 262° West 149 171 7,000 109 Climbing FlightAware ADS-B
Thu 09:14:27 AM 47.7430 -97.0390 257° West 162 186 6,900 -120 Descending FlightAware ADS-B
Thu 09:14:52 AM 47.7540 -97.0430 346° North 176 203 6,900 120 Level FlightAware ADS-B
Thu 09:15:17 AM 47.7400 -97.0280 144° Southeast 189 217 7,000 -133 Climbing FlightAware ADS-B
Thu 09:15:37 AM 47.7340 -97.0480 246° West 177 204 6,800 -171 Descending FlightAware ADS-B
Thu 09:15:52 AM 47.7270 -97.0650 239° Southwest 173 199 6,900  Climbing FlightAware ADS-B
Thu 09:16:07 AM 47.7180 -97.0760 219° Southwest 181 208 6,800 -400 Descending FlightAware ADS-B
Thu 09:16:37 AM 47.6950 -97.0920 205° Southwest 187 215 6,600 -218 Descending FlightAware ADS-B
Thu 09:17:02 AM 47.6730 -97.0850 168° South 183 211 6,600  Level FlightAware ADS-B
Thu 09:17:32 AM 47.6500 -97.0710 158° South 184 212 6,600 -200 Level FlightAware ADS-B
Thu 09:18:02 AM 47.6250 -97.0610 165° South 187 215 6,400 -343 Descending FlightAware ADS-B
Thu 09:18:07 AM 47.6210 -97.0600 170° South 186 214 6,400  Level FlightAware ADS-B
Thu 09:18:42 AM 47.5910 -97.0490 166° South 184 212 6,400  Level FlightAware ADS-B
Thu 09:19:12 AM 47.5640 -97.0390 166° South 207 238 6,400  Level FlightAware ADS-B
Thu 09:19:42 AM 47.5390 -97.0300 166° South 208 239 6,400  Level FlightAware ADS-B
Thu 09:20:22 AM 47.4960 -97.0150 167° South 225 259 6,400 -100 Level FlightAware ADS-B
Thu 09:20:42 AM 47.4760 -97.0080 167° South 227 261 6,300 900 Descending FlightAware ADS-B
Thu 09:21:02 AM 47.4725 -97.0064 167° South 223 257 7,000 512 Climbing Minneapolis Center
Thu 09:22:04 AM 47.3925 -96.9794 167° South 229 264 7,000 -44 Level Minneapolis Center
Thu 09:23:17 AM 47.3322 -96.9578 166° South 231 266 6,900 -311 Descending Minneapolis Center
Thu 09:24:19 AM 47.2494 -96.9581 180° South 232 267 6,300 -537 Descending Minneapolis Center
Thu 09:25:20 AM 47.1869 -96.9583 180° South 231 266 5,800 -634 Descending Minneapolis Center
Thu 09:26:22 AM 47.1189 -96.9594 181° South 233 268 5,000 -390 Descending Minneapolis Center
Thu 09:27:23 AM 47.0533 -96.9606 181° South 230 265 5,000  Level Minneapolis Center
Thu 09:28:25 AM 46.9911 -96.9611 180° South 217 250 5,000  Level Minneapolis Center
Thu 09:29:26 AM 46.9300 -96.9625 181° South 214 246 5,000 -222 Level Minneapolis Center
Thu 09:30:40 AM 46.8717 -96.9625 180° South 217 250 4,500 -667 Descending Minneapolis Center
Thu 09:31:41 AM 46.8050 -96.9644 181° South 228 262 3,500 -488 Descending Minneapolis Center
Thu 09:32:43 AM 46.7411 -96.9642 180° South 194 223 3,500  Level Minneapolis Center
Thu 09:33:44 AM 46.7153 -96.9069 123° Southeast 173 199 3,500  Level Minneapolis Center
Thu 09:34:58 AM 46.7167 -96.8369 88° East 165 190 3,500 -353 Level Minneapolis Center
Thu 09:36:00 AM 46.7619 -96.8183 16° North 149 171 2,700 -439 Descending Minneapolis Center
Thu 09:37:01 AM 46.7958 -96.8183 360° North 140 161 2,600 -98 Descending Minneapolis Center
Thu 09:38:03 AM 46.8275 -96.8178 North 98 113 2,500 -537 Descending Minneapolis Center
Thu 09:39:04 AM 46.8592 -96.8167 North 105 121 1,500 -488 Descending Minneapolis Center
Thu 09:40:06 AM 46.8864 -96.8167 360° North 105 121 1,500 49 Level Minneapolis Center
Thu 09:41:07 AM 46.9167 -96.8161 North 106 122 1,600 537 Climbing Minneapolis Center
Thu 09:42:09 AM 46.9328 -96.7911 47° Northeast 119 137 2,600 585 Climbing Minneapolis Center
Thu 09:43:10 AM 46.9428 -96.7536 69° East 130 150 2,800 756 Climbing Minneapolis Center
Thu 09:44:24 AM 46.9467 -96.6556 87° East 176 203 4,300 1,216 Climbing Minneapolis Center

Login

Don't have an account? Register now (free) for customized features, flight alerts, and more!